sensor_id;sensor_type;location;lat;lon;timestamp;pressure;altitude;pressure_sealevel;temperature
77414;BMP280;66486;49.992;19.164;2023-12-28T00:01:38;99063.75;;;0.57
77414;BMP280;66486;49.992;19.164;2023-12-28T00:04:04;99044.22;;;0.61
77414;BMP280;66486;49.992;19.164;2023-12-28T00:06:30;99042.00;;;0.63
77414;BMP280;66486;49.992;19.164;2023-12-28T00:08:56;99041.19;;;0.75
77414;BMP280;66486;49.992;19.164;2023-12-28T00:11:22;99041.00;;;0.68
77414;BMP280;66486;49.992;19.164;2023-12-28T00:13:49;99042.34;;;0.62
77414;BMP280;66486;49.992;19.164;2023-12-28T00:16:15;99034.09;;;0.51
77414;BMP280;66486;49.992;19.164;2023-12-28T00:18:40;99040.56;;;0.66
77414;BMP280;66486;49.992;19.164;2023-12-28T00:21:07;99046.16;;;0.76
77414;BMP280;66486;49.992;19.164;2023-12-28T00:23:32;99036.47;;;0.68
77414;BMP280;66486;49.992;19.164;2023-12-28T00:25:58;99043.47;;;0.48
77414;BMP280;66486;49.992;19.164;2023-12-28T00:28:24;99036.41;;;0.52
77414;BMP280;66486;49.992;19.164;2023-12-28T00:30:51;99031.09;;;0.65
77414;BMP280;66486;49.992;19.164;2023-12-28T00:33:16;99031.28;;;0.99
77414;BMP280;66486;49.992;19.164;2023-12-28T00:35:42;99028.41;;;0.77
77414;BMP280;66486;49.992;19.164;2023-12-28T00:38:08;99012.78;;;0.60
77414;BMP280;66486;49.992;19.164;2023-12-28T00:40:34;99008.44;;;0.39
77414;BMP280;66486;49.992;19.164;2023-12-28T00:43:00;99004.56;;;0.37
77414;BMP280;66486;49.992;19.164;2023-12-28T00:45:26;99007.38;;;0.28
77414;BMP280;66486;49.992;19.164;2023-12-28T00:47:52;99002.28;;;0.35
77414;BMP280;66486;49.992;19.164;2023-12-28T00:50:21;99002.69;;;0.37
77414;BMP280;66486;49.992;19.164;2023-12-28T00:52:47;98992.38;;;0.32
77414;BMP280;66486;49.992;19.164;2023-12-28T00:55:13;98995.28;;;0.15
77414;BMP280;66486;49.992;19.164;2023-12-28T00:57:39;98993.31;;;0.12
77414;BMP280;66486;49.992;19.164;2023-12-28T01:00:06;98990.03;;;0.43
77414;BMP280;66486;49.992;19.164;2023-12-28T01:02:32;98990.25;;;0.38
77414;BMP280;66486;49.992;19.164;2023-12-28T01:04:58;98978.47;;;0.35
77414;BMP280;66486;49.992;19.164;2023-12-28T01:07:23;98982.94;;;0.19
77414;BMP280;66486;49.992;19.164;2023-12-28T01:09:50;98988.09;;;0.28
77414;BMP280;66486;49.992;19.164;2023-12-28T01:12:16;98982.00;;;0.39
77414;BMP280;66486;49.992;19.164;2023-12-28T01:14:43;98987.31;;;0.27
77414;BMP280;66486;49.992;19.164;2023-12-28T01:17:09;98980.66;;;0.33
77414;BMP280;66486;49.992;19.164;2023-12-28T01:19:35;98977.22;;;0.17
77414;BMP280;66486;49.992;19.164;2023-12-28T01:22:01;98976.13;;;0.06
77414;BMP280;66486;49.992;19.164;2023-12-28T01:24:27;98973.81;;;0.05
77414;BMP280;66486;49.992;19.164;2023-12-28T01:26:53;98976.75;;;0.27
77414;BMP280;66486;49.992;19.164;2023-12-28T01:29:19;98980.31;;;0.47
77414;BMP280;66486;49.992;19.164;2023-12-28T01:31:44;98968.38;;;0.53
77414;BMP280;66486;49.992;19.164;2023-12-28T01:34:11;98973.16;;;0.47
77414;BMP280;66486;49.992;19.164;2023-12-28T01:36:38;98978.00;;;0.18
77414;BMP280;66486;49.992;19.164;2023-12-28T01:39:07;98964.66;;;0.14
77414;BMP280;66486;49.992;19.164;2023-12-28T01:41:33;98960.00;;;0.23
77414;BMP280;66486;49.992;19.164;2023-12-28T01:43:59;98965.00;;;0.13
77414;BMP280;66486;49.992;19.164;2023-12-28T01:46:25;98964.66;;;0.14
77414;BMP280;66486;49.992;19.164;2023-12-28T01:48:51;98959.81;;;0.16
77414;BMP280;66486;49.992;19.164;2023-12-28T01:51:19;98954.50;;;0.28
77414;BMP280;66486;49.992;19.164;2023-12-28T01:53:47;98942.84;;;0.17
77414;BMP280;66486;49.992;19.164;2023-12-28T01:56:15;98948.28;;;0.36
77414;BMP280;66486;49.992;19.164;2023-12-28T01:58:44;98944.13;;;0.23
77414;BMP280;66486;49.992;19.164;2023-12-28T02:01:11;98944.34;;;0.30
77414;BMP280;66486;49.992;19.164;2023-12-28T02:03:38;98941.50;;;0.23
77414;BMP280;66486;49.992;19.164;2023-12-28T02:06:06;98944.50;;;0.22
77414;BMP280;66486;49.992;19.164;2023-12-28T02:08:33;98927.34;;;0.04
77414;BMP280;66486;49.992;19.164;2023-12-28T02:10:59;98928.28;;;0.23
77414;BMP280;66486;49.992;19.164;2023-12-28T02:13:25;98931.53;;;0.32
77414;BMP280;66486;49.992;19.164;2023-12-28T02:15:56;98928.16;;;0.20
77414;BMP280;66486;49.992;19.164;2023-12-28T02:18:29;98914.22;;;0.07
77414;BMP280;66486;49.992;19.164;2023-12-28T02:20:58;98921.22;;;0.15
77414;BMP280;66486;49.992;19.164;2023-12-28T02:23:24;98924.44;;;0.21
77414;BMP280;66486;49.992;19.164;2023-12-28T02:25:49;98913.47;;;0.07
77414;BMP280;66486;49.992;19.164;2023-12-28T02:28:16;98918.38;;;0.20
77414;BMP280;66486;49.992;19.164;2023-12-28T02:30:41;98904.25;;;0.28
77414;BMP280;66486;49.992;19.164;2023-12-28T02:33:35;98904.56;;;0.27
77414;BMP280;66486;49.992;19.164;2023-12-28T02:36:09;98907.13;;;0.23
77414;BMP280;66486;49.992;19.164;2023-12-28T02:38:37;98899.22;;;0.11
77414;BMP280;66486;49.992;19.164;2023-12-28T02:41:04;98903.88;;;0.02
77414;BMP280;66486;49.992;19.164;2023-12-28T02:43:31;98899.00;;;0.04
77414;BMP280;66486;49.992;19.164;2023-12-28T02:45:59;98899.47;;;0.06
77414;BMP280;66486;49.992;19.164;2023-12-28T02:48:25;98897.63;;;-0.06
77414;BMP280;66486;49.992;19.164;2023-12-28T02:50:52;98889.56;;;0.03
77414;BMP280;66486;49.992;19.164;2023-12-28T02:53:18;98898.50;;;-0.02
77414;BMP280;66486;49.992;19.164;2023-12-28T02:55:44;98902.22;;;0.10
77414;BMP280;66486;49.992;19.164;2023-12-28T02:58:10;98901.44;;;0.09
77414;BMP280;66486;49.992;19.164;2023-12-28T03:00:36;98905.63;;;0.10
77414;BMP280;66486;49.992;19.164;2023-12-28T03:03:02;98899.25;;;-0.01
77414;BMP280;66486;49.992;19.164;2023-12-28T03:05:28;98891.25;;;-0.17
77414;BMP280;66486;49.992;19.164;2023-12-28T03:07:54;98886.84;;;-0.25
77414;BMP280;66486;49.992;19.164;2023-12-28T03:10:21;98894.19;;;-0.06
77414;BMP280;66486;49.992;19.164;2023-12-28T03:12:47;98886.91;;;0.03
77414;BMP280;66486;49.992;19.164;2023-12-28T03:15:13;98881.84;;;-0.02
77414;BMP280;66486;49.992;19.164;2023-12-28T03:17:39;98879.88;;;-0.05
77414;BMP280;66486;49.992;19.164;2023-12-28T03:20:06;98887.78;;;0.07
77414;BMP280;66486;49.992;19.164;2023-12-28T03:22:32;98878.25;;;-0.10
77414;BMP280;66486;49.992;19.164;2023-12-28T03:24:58;98871.38;;;0.02
77414;BMP280;66486;49.992;19.164;2023-12-28T03:27:24;98876.38;;;0.19
77414;BMP280;66486;49.992;19.164;2023-12-28T03:29:50;98872.31;;;0.21
77414;BMP280;66486;49.992;19.164;2023-12-28T03:32:16;98873.34;;;0.32
77414;BMP280;66486;49.992;19.164;2023-12-28T03:34:42;98875.63;;;0.18
77414;BMP280;66486;49.992;19.164;2023-12-28T03:37:08;98862.44;;;0.06
77414;BMP280;66486;49.992;19.164;2023-12-28T03:39:37;98862.09;;;-0.20
77414;BMP280;66486;49.992;19.164;2023-12-28T03:42:03;98855.81;;;-0.28
77414;BMP280;66486;49.992;19.164;2023-12-28T03:44:29;98861.28;;;-0.09
77414;BMP280;66486;49.992;19.164;2023-12-28T03:46:55;98864.03;;;-0.17
77414;BMP280;66486;49.992;19.164;2023-12-28T03:49:21;98867.94;;;-0.27
77414;BMP280;66486;49.992;19.164;2023-12-28T03:51:49;98867.03;;;-0.43
77414;BMP280;66486;49.992;19.164;2023-12-28T03:54:19;98807.00;;;-0.82
77414;BMP280;66486;49.992;19.164;2023-12-28T03:56:46;98848.34;;;-0.38
77414;BMP280;66486;49.992;19.164;2023-12-28T03:59:12;98852.25;;;-0.08
77414;BMP280;66486;49.992;19.164;2023-12-28T04:01:38;98855.91;;;-0.12
77414;BMP280;66486;49.992;19.164;2023-12-28T04:04:04;98845.91;;;-0.19
77414;BMP280;66486;49.992;19.164;2023-12-28T04:06:30;98847.09;;;-0.16
77414;BMP280;66486;49.992;19.164;2023-12-28T04:08:56;98847.88;;;-0.16
77414;BMP280;66486;49.992;19.164;2023-12-28T04:11:23;98856.56;;;-0.15
77414;BMP280;66486;49.992;19.164;2023-12-28T04:13:49;98865.56;;;-0.04
77414;BMP280;66486;49.992;19.164;2023-12-28T04:16:15;98866.94;;;-0.22
77414;BMP280;66486;49.992;19.164;2023-12-28T04:18:42;98872.28;;;-0.07
77414;BMP280;66486;49.992;19.164;2023-12-28T04:21:12;98879.44;;;-0.07
77414;BMP280;66486;49.992;19.164;2023-12-28T04:23:39;98881.78;;;-0.18
77414;BMP280;66486;49.992;19.164;2023-12-28T04:26:06;98884.09;;;-0.16
77414;BMP280;66486;49.992;19.164;2023-12-28T04:28:32;98896.34;;;-0.24
77414;BMP280;66486;49.992;19.164;2023-12-28T04:31:04;98897.00;;;-0.27
77414;BMP280;66486;49.992;19.164;2023-12-28T04:33:31;98892.69;;;-0.43
77414;BMP280;66486;49.992;19.164;2023-12-28T04:36:02;98891.38;;;-0.50
77414;BMP280;66486;49.992;19.164;2023-12-28T04:38:31;98903.25;;;-0.43
77414;BMP280;66486;49.992;19.164;2023-12-28T04:41:00;98895.91;;;-0.26
77414;BMP280;66486;49.992;19.164;2023-12-28T04:43:26;98903.47;;;-0.12
77414;BMP280;66486;49.992;19.164;2023-12-28T04:45:53;98896.53;;;-0.17
77414;BMP280;66486;49.992;19.164;2023-12-28T04:48:18;98897.22;;;-0.32
77414;BMP280;66486;49.992;19.164;2023-12-28T04:50:49;98878.38;;;-0.42
77414;BMP280;66486;49.992;19.164;2023-12-28T04:53:16;98882.31;;;-0.36
77414;BMP280;66486;49.992;19.164;2023-12-28T04:55:42;98883.56;;;-0.34
77414;BMP280;66486;49.992;19.164;2023-12-28T04:58:08;98886.44;;;-0.27
77414;BMP280;66486;49.992;19.164;2023-12-28T05:00:34;98893.13;;;-0.17
77414;BMP280;66486;49.992;19.164;2023-12-28T05:02:59;98886.09;;;-0.37
77414;BMP280;66486;49.992;19.164;2023-12-28T05:05:26;98889.41;;;-0.65
77414;BMP280;66486;49.992;19.164;2023-12-28T05:07:51;98904.25;;;-0.60
77414;BMP280;66486;49.992;19.164;2023-12-28T05:10:18;98907.22;;;-0.37
77414;BMP280;66486;49.992;19.164;2023-12-28T05:12:43;98905.69;;;-0.38
77414;BMP280;66486;49.992;19.164;2023-12-28T05:15:10;98897.22;;;-0.56
77414;BMP280;66486;49.992;19.164;2023-12-28T05:17:36;98898.19;;;-0.73
77414;BMP280;66486;49.992;19.164;2023-12-28T05:20:02;98901.41;;;-0.79
77414;BMP280;66486;49.992;19.164;2023-12-28T05:22:28;98895.53;;;-1.09
77414;BMP280;66486;49.992;19.164;2023-12-28T05:24:54;98901.03;;;-1.02
77414;BMP280;66486;49.992;19.164;2023-12-28T05:27:20;98891.91;;;-1.05
77414;BMP280;66486;49.992;19.164;2023-12-28T05:29:46;98890.47;;;-1.14
77414;BMP280;66486;49.992;19.164;2023-12-28T05:32:12;98906.66;;;-1.04
77414;BMP280;66486;49.992;19.164;2023-12-28T05:34:38;98916.44;;;-1.04
77414;BMP280;66486;49.992;19.164;2023-12-28T05:37:04;98915.88;;;-1.10
77414;BMP280;66486;49.992;19.164;2023-12-28T05:39:31;98920.00;;;-1.33
77414;BMP280;66486;49.992;19.164;2023-12-28T05:41:57;98918.19;;;-1.41
77414;BMP280;66486;49.992;19.164;2023-12-28T05:44:24;98917.81;;;-1.31
77414;BMP280;66486;49.992;19.164;2023-12-28T05:46:49;98933.16;;;-1.00
77414;BMP280;66486;49.992;19.164;2023-12-28T05:49:16;98914.84;;;-1.17
77414;BMP280;66486;49.992;19.164;2023-12-28T05:51:41;98909.84;;;-1.10
77414;BMP280;66486;49.992;19.164;2023-12-28T05:54:08;98915.81;;;-0.89
77414;BMP280;66486;49.992;19.164;2023-12-28T05:56:34;98914.69;;;-1.00
77414;BMP280;66486;49.992;19.164;2023-12-28T05:59:00;98913.47;;;-1.03
77414;BMP280;66486;49.992;19.164;2023-12-28T06:01:26;98908.59;;;-1.13
77414;BMP280;66486;49.992;19.164;2023-12-28T06:03:53;98902.81;;;-0.94
77414;BMP280;66486;49.992;19.164;2023-12-28T06:06:20;98909.28;;;-0.91
77414;BMP280;66486;49.992;19.164;2023-12-28T06:08:46;98915.97;;;-1.18
77414;BMP280;66486;49.992;19.164;2023-12-28T06:11:12;98915.00;;;-1.34
77414;BMP280;66486;49.992;19.164;2023-12-28T06:13:40;98906.47;;;-1.31
77414;BMP280;66486;49.992;19.164;2023-12-28T06:16:06;98894.84;;;-1.30
77414;BMP280;66486;49.992;19.164;2023-12-28T06:18:33;98888.16;;;-1.16
77414;BMP280;66486;49.992;19.164;2023-12-28T06:20:59;98889.38;;;-1.13
77414;BMP280;66486;49.992;19.164;2023-12-28T06:23:25;98894.25;;;-1.03
77414;BMP280;66486;49.992;19.164;2023-12-28T06:25:52;98904.31;;;-1.17
77414;BMP280;66486;49.992;19.164;2023-12-28T06:28:20;98908.06;;;-1.18
77414;BMP280;66486;49.992;19.164;2023-12-28T06:30:46;98915.44;;;-1.45
77414;BMP280;66486;49.992;19.164;2023-12-28T06:33:14;98904.03;;;-1.36
77414;BMP280;66486;49.992;19.164;2023-12-28T06:35:41;98895.63;;;-1.18
77414;BMP280;66486;49.992;19.164;2023-12-28T06:38:07;98881.69;;;-0.94
77414;BMP280;66486;49.992;19.164;2023-12-28T06:40:33;98886.19;;;-0.94
77414;BMP280;66486;49.992;19.164;2023-12-28T06:42:59;98908.19;;;-1.15
77414;BMP280;66486;49.992;19.164;2023-12-28T06:45:25;98918.56;;;-1.30
77414;BMP280;66486;49.992;19.164;2023-12-28T06:47:53;98910.94;;;-0.99
77414;BMP280;66486;49.992;19.164;2023-12-28T06:50:19;98905.03;;;-0.96
77414;BMP280;66486;49.992;19.164;2023-12-28T06:52:45;98899.97;;;-0.89
77414;BMP280;66486;49.992;19.164;2023-12-28T06:55:11;98917.34;;;-1.00
77414;BMP280;66486;49.992;19.164;2023-12-28T06:57:37;98913.88;;;-1.13
77414;BMP280;66486;49.992;19.164;2023-12-28T07:00:04;98914.66;;;-1.12
77414;BMP280;66486;49.992;19.164;2023-12-28T07:02:31;98909.41;;;-1.00
77414;BMP280;66486;49.992;19.164;2023-12-28T07:04:57;98903.16;;;-0.83
77414;BMP280;66486;49.992;19.164;2023-12-28T07:07:23;98906.56;;;-0.71
77414;BMP280;66486;49.992;19.164;2023-12-28T07:09:50;98909.00;;;-0.54
77414;BMP280;66486;49.992;19.164;2023-12-28T07:12:19;98913.41;;;-0.45
77414;BMP280;66486;49.992;19.164;2023-12-28T07:14:46;98902.28;;;-0.27
77414;BMP280;66486;49.992;19.164;2023-12-28T07:17:12;98911.94;;;-0.07
77414;BMP280;66486;49.992;19.164;2023-12-28T07:19:43;98900.13;;;0.03
77414;BMP280;66486;49.992;19.164;2023-12-28T07:22:10;98899.09;;;0.20
77414;BMP280;66486;49.992;19.164;2023-12-28T07:24:35;98893.31;;;0.30
77414;BMP280;66486;49.992;19.164;2023-12-28T07:27:02;98889.81;;;0.41
77414;BMP280;66486;49.992;19.164;2023-12-28T07:29:27;98873.66;;;0.59
77414;BMP280;66486;49.992;19.164;2023-12-28T07:31:57;98885.09;;;0.78
77414;BMP280;66486;49.992;19.164;2023-12-28T07:34:23;98880.50;;;1.07
77414;BMP280;66486;49.992;19.164;2023-12-28T07:36:50;98876.06;;;1.26
77414;BMP280;66486;49.992;19.164;2023-12-28T07:39:16;98883.13;;;1.38
77414;BMP280;66486;49.992;19.164;2023-12-28T07:41:45;98891.38;;;1.52
77414;BMP280;66486;49.992;19.164;2023-12-28T07:44:11;98889.47;;;1.68
77414;BMP280;66486;49.992;19.164;2023-12-28T07:46:38;98899.88;;;1.77
77414;BMP280;66486;49.992;19.164;2023-12-28T07:49:04;98897.50;;;1.72
77414;BMP280;66486;49.992;19.164;2023-12-28T07:51:30;98886.84;;;1.68
77414;BMP280;66486;49.992;19.164;2023-12-28T07:53:56;98875.53;;;1.71
77414;BMP280;66486;49.992;19.164;2023-12-28T07:56:24;98887.31;;;1.74
77414;BMP280;66486;49.992;19.164;2023-12-28T07:58:50;98888.50;;;1.76
77414;BMP280;66486;49.992;19.164;2023-12-28T08:01:16;98887.06;;;1.79
77414;BMP280;66486;49.992;19.164;2023-12-28T08:03:43;98891.66;;;1.82
77414;BMP280;66486;49.992;19.164;2023-12-28T08:06:10;98898.19;;;1.88
77414;BMP280;66486;49.992;19.164;2023-12-28T08:08:38;98906.72;;;1.97
77414;BMP280;66486;49.992;19.164;2023-12-28T08:11:06;98905.34;;;2.03
77414;BMP280;66486;49.992;19.164;2023-12-28T08:13:32;98915.25;;;2.06
77414;BMP280;66486;49.992;19.164;2023-12-28T08:16:01;98913.03;;;2.08
77414;BMP280;66486;49.992;19.164;2023-12-28T08:18:39;98904.84;;;2.17
77414;BMP280;66486;49.992;19.164;2023-12-28T08:21:08;98912.81;;;2.17
77414;BMP280;66486;49.992;19.164;2023-12-28T08:23:36;98917.22;;;2.28
77414;BMP280;66486;49.992;19.164;2023-12-28T08:26:08;98911.88;;;2.47
77414;BMP280;66486;49.992;19.164;2023-12-28T08:28:36;98912.31;;;2.72
77414;BMP280;66486;49.992;19.164;2023-12-28T08:31:12;98902.75;;;3.13
77414;BMP280;66486;49.992;19.164;2023-12-28T08:33:39;98907.78;;;3.22
77414;BMP280;66486;49.992;19.164;2023-12-28T08:36:07;98905.31;;;3.32
77414;BMP280;66486;49.992;19.164;2023-12-28T08:38:33;98891.41;;;3.42
77414;BMP280;66486;49.992;19.164;2023-12-28T08:41:00;98907.13;;;3.54
77414;BMP280;66486;49.992;19.164;2023-12-28T08:43:49;98902.78;;;3.69
77414;BMP280;66486;49.992;19.164;2023-12-28T08:46:24;98911.03;;;3.90
77414;BMP280;66486;49.992;19.164;2023-12-28T08:49:02;98905.81;;;4.01
77414;BMP280;66486;49.992;19.164;2023-12-28T08:51:35;98904.13;;;4.19
77414;BMP280;66486;49.992;19.164;2023-12-28T08:54:12;98908.72;;;4.22
77414;BMP280;66486;49.992;19.164;2023-12-28T08:56:47;98909.22;;;4.31
77414;BMP280;66486;49.992;19.164;2023-12-28T08:59:20;98911.44;;;4.29
77414;BMP280;66486;49.992;19.164;2023-12-28T09:01:46;98911.44;;;4.29
77414;BMP280;66486;49.992;19.164;2023-12-28T09:04:18;98915.44;;;4.46
77414;BMP280;66486;49.992;19.164;2023-12-28T09:06:50;98929.38;;;4.69
77414;BMP280;66486;49.992;19.164;2023-12-28T09:09:16;98930.53;;;4.72
77414;BMP280;66486;49.992;19.164;2023-12-28T09:11:44;98939.66;;;4.74
77414;BMP280;66486;49.992;19.164;2023-12-28T09:14:10;98939.34;;;4.79
77414;BMP280;66486;49.992;19.164;2023-12-28T09:16:38;98926.78;;;4.80
77414;BMP280;66486;49.992;19.164;2023-12-28T09:19:11;98937.53;;;4.90
77414;BMP280;66486;49.992;19.164;2023-12-28T09:21:47;98939.81;;;4.88
77414;BMP280;66486;49.992;19.164;2023-12-28T09:24:22;98940.19;;;4.87
77414;BMP280;66486;49.992;19.164;2023-12-28T09:26:56;98936.00;;;4.89
77414;BMP280;66486;49.992;19.164;2023-12-28T09:29:22;98936.13;;;5.07
77414;BMP280;66486;49.992;19.164;2023-12-28T09:31:48;98934.28;;;5.14
77414;BMP280;66486;49.992;19.164;2023-12-28T09:34:17;98924.47;;;5.29
77414;BMP280;66486;49.992;19.164;2023-12-28T09:36:44;98916.53;;;5.36
77414;BMP280;66486;49.992;19.164;2023-12-28T09:39:10;98913.25;;;5.60
77414;BMP280;66486;49.992;19.164;2023-12-28T09:41:43;98896.84;;;5.62
77414;BMP280;66486;49.992;19.164;2023-12-28T09:44:14;98898.47;;;5.84
77414;BMP280;66486;49.992;19.164;2023-12-28T09:46:47;98895.44;;;5.93
77414;BMP280;66486;49.992;19.164;2023-12-28T09:49:13;98890.91;;;6.07
77414;BMP280;66486;49.992;19.164;2023-12-28T09:51:41;98895.13;;;6.19
77414;BMP280;66486;49.992;19.164;2023-12-28T09:54:10;98898.59;;;6.23
77414;BMP280;66486;49.992;19.164;2023-12-28T09:56:40;98898.94;;;6.28
77414;BMP280;66486;49.992;19.164;2023-12-28T09:59:13;98894.41;;;6.47
77414;BMP280;66486;49.992;19.164;2023-12-28T10:01:45;98902.44;;;6.64
77414;BMP280;66486;49.992;19.164;2023-12-28T10:04:12;98904.34;;;6.71
77414;BMP280;66486;49.992;19.164;2023-12-28T10:06:42;98887.53;;;6.91
77414;BMP280;66486;49.992;19.164;2023-12-28T10:09:08;98884.44;;;6.93
77414;BMP280;66486;49.992;19.164;2023-12-28T10:11:50;98879.47;;;7.06
77414;BMP280;66486;49.992;19.164;2023-12-28T10:14:22;98879.44;;;7.20
77414;BMP280;66486;49.992;19.164;2023-12-28T10:16:56;98880.53;;;7.47
77414;BMP280;66486;49.992;19.164;2023-12-28T10:19:24;98877.44;;;7.48
77414;BMP280;66486;49.992;19.164;2023-12-28T10:21:50;98899.22;;;7.61
77414;BMP280;66486;49.992;19.164;2023-12-28T10:24:19;98892.28;;;7.67
77414;BMP280;66486;49.992;19.164;2023-12-28T10:26:52;98908.31;;;7.74
77414;BMP280;66486;49.992;19.164;2023-12-28T10:29:25;98910.59;;;7.79
77414;BMP280;66486;49.992;19.164;2023-12-28T10:31:52;98901.75;;;7.86
77414;BMP280;66486;49.992;19.164;2023-12-28T10:34:28;98899.41;;;8.02
77414;BMP280;66486;49.992;19.164;2023-12-28T10:37:04;98894.09;;;7.95
77414;BMP280;66486;49.992;19.164;2023-12-28T10:39:36;98898.28;;;7.92
77414;BMP280;66486;49.992;19.164;2023-12-28T10:42:13;98904.75;;;8.02
77414;BMP280;66486;49.992;19.164;2023-12-28T10:44:52;98910.91;;;7.88
77414;BMP280;66486;49.992;19.164;2023-12-28T10:47:21;98901.31;;;7.98
77414;BMP280;66486;49.992;19.164;2023-12-28T10:49:54;98901.66;;;8.03
77414;BMP280;66486;49.992;19.164;2023-12-28T10:52:29;98900.41;;;8.19
77414;BMP280;66486;49.992;19.164;2023-12-28T10:55:08;98890.47;;;8.19
77414;BMP280;66486;49.992;19.164;2023-12-28T10:57:58;98898.50;;;8.19
77414;BMP280;66486;49.992;19.164;2023-12-28T11:00:34;98887.44;;;8.17
77414;BMP280;66486;49.992;19.164;2023-12-28T11:03:06;98887.41;;;8.21
77414;BMP280;66486;49.992;19.164;2023-12-28T11:05:42;98872.09;;;8.18
77414;BMP280;66486;49.992;19.164;2023-12-28T11:08:19;98881.28;;;8.17
77414;BMP280;66486;49.992;19.164;2023-12-28T11:10:52;98867.81;;;8.31
77414;BMP280;66486;49.992;19.164;2023-12-28T11:13:23;98865.06;;;8.38
77414;BMP280;66486;49.992;19.164;2023-12-28T11:15:56;98861.72;;;8.27
77414;BMP280;66486;49.992;19.164;2023-12-28T11:18:28;98857.34;;;8.47
77414;BMP280;66486;49.992;19.164;2023-12-28T11:21:00;98868.31;;;8.63
77414;BMP280;66486;49.992;19.164;2023-12-28T11:23:30;98852.63;;;8.58
77414;BMP280;66486;49.992;19.164;2023-12-28T11:25:59;98844.47;;;8.76
77414;BMP280;66486;49.992;19.164;2023-12-28T11:28:26;98849.72;;;8.86
77414;BMP280;66486;49.992;19.164;2023-12-28T11:30:52;98845.88;;;8.84
77414;BMP280;66486;49.992;19.164;2023-12-28T11:33:46;98849.88;;;9.06
77414;BMP280;66486;49.992;19.164;2023-12-28T11:36:40;98853.59;;;9.15
77414;BMP280;66486;49.992;19.164;2023-12-28T11:39:20;98847.78;;;9.20
77414;BMP280;66486;49.992;19.164;2023-12-28T11:42:06;98844.72;;;9.22
77414;BMP280;66486;49.992;19.164;2023-12-28T11:44:41;98837.63;;;9.35
77414;BMP280;66486;49.992;19.164;2023-12-28T11:47:20;98821.88;;;9.37
77414;BMP280;66486;49.992;19.164;2023-12-28T11:49:51;98813.38;;;9.42
77414;BMP280;66486;49.992;19.164;2023-12-28T11:52:28;98806.78;;;9.47
77414;BMP280;66486;49.992;19.164;2023-12-28T11:55:00;98806.75;;;9.50
77414;BMP280;66486;49.992;19.164;2023-12-28T11:57:29;98806.69;;;9.54
77414;BMP280;66486;49.992;19.164;2023-12-28T12:00:01;98796.78;;;9.51
77414;BMP280;66486;49.992;19.164;2023-12-28T12:02:43;98798.59;;;9.57
77414;BMP280;66486;49.992;19.164;2023-12-28T12:05:11;98802.75;;;9.62
77414;BMP280;66486;49.992;19.164;2023-12-28T12:07:43;98798.34;;;9.48
77414;BMP280;66486;49.992;19.164;2023-12-28T12:10:16;98787.09;;;9.57
77414;BMP280;66486;49.992;19.164;2023-12-28T12:12:45;98784.19;;;9.71
77414;BMP280;66486;49.992;19.164;2023-12-28T12:15:12;98777.50;;;9.82
77414;BMP280;66486;49.992;19.164;2023-12-28T12:17:47;98752.56;;;9.82
77414;BMP280;66486;49.992;19.164;2023-12-28T12:20:16;98759.88;;;9.81
77414;BMP280;66486;49.992;19.164;2023-12-28T12:22:47;98772.06;;;9.86
77414;BMP280;66486;49.992;19.164;2023-12-28T12:25:18;98781.53;;;9.94
77414;BMP280;66486;49.992;19.164;2023-12-28T12:27:51;98775.91;;;10.08
77414;BMP280;66486;49.992;19.164;2023-12-28T12:30:19;98783.84;;;10.15
77414;BMP280;66486;49.992;19.164;2023-12-28T12:32:48;98781.03;;;10.26
77414;BMP280;66486;49.992;19.164;2023-12-28T12:35:20;98778.25;;;10.29
77414;BMP280;66486;49.992;19.164;2023-12-28T12:37:53;98777.31;;;10.39
77414;BMP280;66486;49.992;19.164;2023-12-28T12:40:27;98767.19;;;10.67
77414;BMP280;66486;49.992;19.164;2023-12-28T12:42:58;98776.19;;;10.96
77414;BMP280;66486;49.992;19.164;2023-12-28T12:45:32;98765.34;;;11.19
77414;BMP280;66486;49.992;19.164;2023-12-28T12:48:03;98771.38;;;11.43
77414;BMP280;66486;49.992;19.164;2023-12-28T12:50:36;98772.47;;;11.45
77414;BMP280;66486;49.992;19.164;2023-12-28T12:53:06;98763.78;;;11.70
77414;BMP280;66486;49.992;19.164;2023-12-28T12:55:38;98754.69;;;11.80
77414;BMP280;66486;49.992;19.164;2023-12-28T12:58:15;98755.75;;;11.98
77414;BMP280;66486;49.992;19.164;2023-12-28T13:00:45;98755.91;;;12.08
77414;BMP280;66486;49.992;19.164;2023-12-28T13:03:13;98740.44;;;12.12
77414;BMP280;66486;49.992;19.164;2023-12-28T13:05:41;98745.81;;;12.12
77414;BMP280;66486;49.992;19.164;2023-12-28T13:08:12;98750.25;;;12.18
77414;BMP280;66486;49.992;19.164;2023-12-28T13:10:42;98752.13;;;12.05
77414;BMP280;66486;49.992;19.164;2023-12-28T13:13:08;98762.84;;;12.09
77414;BMP280;66486;49.992;19.164;2023-12-28T13:15:48;98750.16;;;12.22
77414;BMP280;66486;49.992;19.164;2023-12-28T13:18:20;98733.91;;;12.09
77414;BMP280;66486;49.992;19.164;2023-12-28T13:20:52;98732.44;;;12.21
77414;BMP280;66486;49.992;19.164;2023-12-28T13:23:18;98727.72;;;12.25
77414;BMP280;66486;49.992;19.164;2023-12-28T13:25:49;98742.63;;;12.01
77414;BMP280;66486;49.992;19.164;2023-12-28T13:28:19;98745.13;;;11.91
77414;BMP280;66486;49.992;19.164;2023-12-28T13:30:49;98741.28;;;11.92
77414;BMP280;66486;49.992;19.164;2023-12-28T13:33:41;98749.06;;;11.90
77414;BMP280;66486;49.992;19.164;2023-12-28T13:36:07;98762.44;;;11.78
77414;BMP280;66486;49.992;19.164;2023-12-28T13:38:34;98764.56;;;11.86
77414;BMP280;66486;49.992;19.164;2023-12-28T13:41:10;98763.84;;;11.98
77414;BMP280;66486;49.992;19.164;2023-12-28T13:43:36;98775.66;;;11.88
77414;BMP280;66486;49.992;19.164;2023-12-28T13:46:09;98781.72;;;11.92
77414;BMP280;66486;49.992;19.164;2023-12-28T13:48:35;98788.47;;;12.01
77414;BMP280;66486;49.992;19.164;2023-12-28T13:51:07;98782.66;;;11.86
77414;BMP280;66486;49.992;19.164;2023-12-28T13:53:36;98779.53;;;11.71
77414;BMP280;66486;49.992;19.164;2023-12-28T13:56:08;98782.91;;;11.59
77414;BMP280;66486;49.992;19.164;2023-12-28T13:58:35;98784.44;;;11.60
77414;BMP280;66486;49.992;19.164;2023-12-28T14:01:04;98792.91;;;11.59
77414;BMP280;66486;49.992;19.164;2023-12-28T14:03:30;98809.00;;;11.46
77414;BMP280;66486;49.992;19.164;2023-12-28T14:06:01;98812.66;;;11.36
77414;BMP280;66486;49.992;19.164;2023-12-28T14:08:27;98807.59;;;11.22
77414;BMP280;66486;49.992;19.164;2023-12-28T14:10:54;98804.59;;;11.36
77414;BMP280;66486;49.992;19.164;2023-12-28T14:13:26;98799.19;;;11.36